Time;durP1;ratioP1;P1;durP2;ratioP2;P2;SDS_P1;SDS_P2;PMS_P1;PMS_P2;Temp;Humidity;BMP_temperature;BMP_pressure;BME280_temperature;BME280_humidity;BME280_pressure;Samples;Min_cycle;Max_cycle;Signal;HPM_P1;HPM_P2
2022/07/05 00:01:18;;;;;;;5.13;2.05;;;27.80;60.00;;;;;;5035285;28;20044;-78
2022/07/05 00:03:44;;;;;;;7.13;1.90;;;27.70;61.40;;;;;;5035636;28;20037;-78
2022/07/05 00:06:10;;;;;;;5.38;1.33;;;27.30;62.00;;;;;;5035578;28;20108;-78
2022/07/05 00:08:35;;;;;;;3.38;1.35;;;27.30;61.80;;;;;;5035529;28;20018;-78
2022/07/05 00:11:01;;;;;;;3.38;1.27;;;27.20;63.40;;;;;;5035711;28;20032;-78
2022/07/05 00:27:48;;;;;;;2.40;0.98;;;27.10;64.10;;;;;;5035421;28;20083;-78
2022/07/05 00:30:14;;;;;;;3.33;1.50;;;27.20;63.20;;;;;;5035240;28;20034;-80
2022/07/05 00:32:40;;;;;;;1.92;1.02;;;27.30;63.80;;;;;;5016797;28;20033;-81
2022/07/05 00:35:07;;;;;;;2.00;0.90;;;27.30;62.70;;;;;;5034986;28;20404;-80
2022/07/05 00:37:33;;;;;;;1.77;0.90;;;27.40;62.70;;;;;;5035081;28;20038;-80
2022/07/05 00:39:59;;;;;;;2.53;1.00;;;27.40;62.70;;;;;;5035276;28;20350;-79
2022/07/05 00:42:25;;;;;;;3.40;1.55;;;27.40;63.00;;;;;;5034712;28;20029;-79
2022/07/05 00:44:51;;;;;;;3.30;1.23;;;27.00;64.80;;;;;;5034805;28;20064;-79
2022/07/05 00:47:16;;;;;;;3.85;0.90;;;26.90;64.90;;;;;;5034574;28;20104;-79
2022/07/05 00:49:42;;;;;;;6.88;1.85;;;26.80;64.60;;;;;;5033360;28;20369;-79
2022/07/05 00:52:09;;;;;;;2.92;1.17;;;26.80;65.40;;;;;;5034600;28;20032;-79
2022/07/05 00:54:37;;;;;;;5.57;1.10;;;26.80;64.50;;;;;;5035092;28;20030;-78
2022/07/05 00:57:03;;;;;;;2.85;1.00;;;26.70;65.30;;;;;;5017099;28;20033;-78
2022/07/05 00:59:30;;;;;;;3.63;1.08;;;26.80;64.60;;;;;;5034549;28;20166;-78
2022/07/05 01:01:56;;;;;;;6.03;1.58;;;26.90;64.80;;;;;;5034498;28;20036;-78
2022/07/05 01:04:22;;;;;;;2.85;0.93;;;26.90;65.10;;;;;;5034490;28;20033;-78
2022/07/05 01:06:50;;;;;;;3.38;1.35;;;26.90;64.50;;;;;;5034653;28;20083;-78
2022/07/05 01:09:18;;;;;;;4.13;1.10;;;26.90;64.50;;;;;;5034397;28;20100;-78
2022/07/05 01:11:45;;;;;;;4.72;1.67;;;26.90;64.60;;;;;;5034529;28;20025;-79
2022/07/05 01:14:16;;;;;;;1.95;1.02;;;26.90;65.10;;;;;;5034144;28;20130;-78
2022/07/05 01:16:42;;;;;;;2.38;0.95;;;26.90;64.90;;;;;;5034394;28;20039;-78
2022/07/05 01:19:11;;;;;;;4.78;1.13;;;26.90;64.60;;;;;;5034644;28;20029;-78
2022/07/05 01:21:43;;;;;;;3.65;1.42;;;27.00;64.50;;;;;;5034217;28;20335;-78
2022/07/05 01:30:53;;;;;;;5.97;1.30;;;27.10;64.50;;;;;;5034210;28;20052;-79
2022/07/05 01:33:18;;;;;;;4.03;1.27;;;27.00;64.90;;;;;;5034206;28;20025;-79
2022/07/05 01:35:45;;;;;;;4.40;1.48;;;27.00;64.60;;;;;;5031049;28;20099;-79
2022/07/05 01:38:12;;;;;;;3.67;1.30;;;27.00;64.30;;;;;;5031517;28;20075;-78
2022/07/05 01:40:38;;;;;;;3.33;1.13;;;27.00;64.10;;;;;;5033761;28;20037;-78
2022/07/05 01:43:05;;;;;;;4.55;1.25;;;27.10;64.00;;;;;;5033489;28;20025;-78
2022/07/05 01:45:41;;;;;;;3.28;1.27;;;27.10;63.90;;;;;;5033806;28;20033;-78
2022/07/05 01:48:11;;;;;;;3.50;1.33;;;27.20;63.80;;;;;;5033424;28;20022;-79
2022/07/05 01:50:48;;;;;;;3.63;1.35;;;27.10;63.50;;;;;;5028713;28;20038;-79
2022/07/05 01:53:18;;;;;;;2.65;1.00;;;27.00;63.60;;;;;;5013728;28;20029;-79
2022/07/05 01:55:45;;;;;;;4.40;0.93;;;27.00;63.40;;;;;;5028712;28;20045;-78
2022/07/05 01:58:11;;;;;;;5.32;1.65;;;27.10;63.60;;;;;;5033123;28;20104;-78
2022/07/05 02:00:48;;;;;;;7.55;1.88;;;26.90;64.20;;;;;;5032969;28;20029;-78
2022/07/05 02:03:14;;;;;;;4.22;1.80;;;26.70;64.80;;;;;;5015415;28;20036;-78
2022/07/05 02:05:42;;;;;;;6.55;1.63;;;26.60;65.40;;;;;;5033521;28;20048;-78
2022/07/05 02:08:08;;;;;;;2.13;0.70;;;26.40;66.00;;;;;;5032201;28;20184;-78
2022/07/05 02:10:37;;;;;;;3.90;0.90;;;26.40;65.30;;;;;;5033063;28;20021;-78
2022/07/05 02:13:04;;;;;;;4.68;1.63;;;26.50;65.40;;;;;;5032965;28;20033;-78
2022/07/05 02:15:37;;;;;;;8.68;3.40;;;26.60;65.00;;;;;;5033401;28;20179;-78
2022/07/05 02:18:04;;;;;;;4.50;2.25;;;26.40;65.90;;;;;;5033395;28;20365;-78
2022/07/05 02:20:30;;;;;;;5.82;1.90;;;26.40;65.50;;;;;;5033398;28;20045;-83
2022/07/05 02:22:57;;;;;;;2.50;1.52;;;26.40;65.50;;;;;;5033020;28;20026;-82
2022/07/05 02:25:23;;;;;;;4.72;1.67;;;26.40;65.30;;;;;;5024058;28;20029;-82
2022/07/05 02:27:50;;;;;;;3.90;1.40;;;26.50;65.30;;;;;;5032464;28;20063;-82
2022/07/05 02:30:16;;;;;;;3.20;1.95;;;26.60;65.00;;;;;;5033075;28;20087;-82
2022/07/05 02:32:42;;;;;;;2.92;1.55;;;26.60;65.30;;;;;;5033177;28;20037;-83
2022/07/05 02:35:09;;;;;;;5.05;1.52;;;26.70;64.60;;;;;;5033111;28;20095;-83
2022/07/05 02:37:36;;;;;;;5.18;1.67;;;26.70;64.50;;;;;;5033251;28;20151;-83
2022/07/05 02:40:03;;;;;;;2.20;1.20;;;26.70;64.60;;;;;;5032909;28;20080;-82
2022/07/05 02:42:28;;;;;;;6.30;1.80;;;26.60;64.60;;;;;;5032470;28;20013;-82
2022/07/05 02:44:54;;;;;;;6.53;2.28;;;26.60;64.90;;;;;;5017241;28;20029;-82
2022/07/05 02:47:20;;;;;;;5.03;1.67;;;26.60;64.90;;;;;;5013134;28;20062;-83
2022/07/05 02:49:45;;;;;;;14.98;2.20;;;26.50;65.00;;;;;;5013233;28;20075;-83
2022/07/05 02:52:11;;;;;;;6.13;2.00;;;26.00;66.50;;;;;;4995991;28;20033;-83
2022/07/05 02:54:39;;;;;;;6.28;2.55;;;25.80;67.40;;;;;;5013365;28;20026;-83
2022/07/05 02:57:05;;;;;;;5.53;1.63;;;25.50;68.70;;;;;;5014456;28;20113;-82
2022/07/05 02:59:30;;;;;;;3.15;1.75;;;25.50;68.90;;;;;;5032254;28;20148;-82
2022/07/05 03:01:56;;;;;;;4.32;1.85;;;25.40;69.20;;;;;;5032511;28;20485;-82
2022/07/05 03:04:22;;;;;;;5.10;2.10;;;25.30;70.00;;;;;;5032480;28;20030;-82
2022/07/05 03:06:47;;;;;;;2.15;1.42;;;25.30;69.70;;;;;;5032169;28;20465;-83
2022/07/05 03:09:13;;;;;;;7.07;2.33;;;25.40;69.50;;;;;;5025496;28;20018;-83
2022/07/05 03:11:39;;;;;;;6.97;2.63;;;25.00;70.30;;;;;;5020129;28;20108;-83
2022/07/05 03:14:04;;;;;;;6.85;2.60;;;24.80;71.10;;;;;;5034937;28;20507;-83
2022/07/05 03:16:30;;;;;;;3.92;1.73;;;24.60;71.50;;;;;;5037061;28;20129;-83
2022/07/05 03:18:56;;;;;;;7.50;2.35;;;24.60;71.80;;;;;;5036558;28;20056;-83
2022/07/05 03:21:23;;;;;;;12.27;2.50;;;24.60;71.90;;;;;;5018871;28;20087;-84
2022/07/05 03:23:48;;;;;;;5.47;1.77;;;24.60;71.90;;;;;;5036681;28;20365;-84
2022/07/05 03:26:14;;;;;;;3.28;1.70;;;24.70;71.60;;;;;;5036371;28;20037;-84
2022/07/05 03:28:40;;;;;;;3.85;1.70;;;24.80;71.20;;;;;;5036335;28;20021;-82
2022/07/05 03:31:05;;;;;;;6.47;1.90;;;25.00;70.70;;;;;;5036689;28;20030;-82
2022/07/05 03:33:31;;;;;;;3.83;1.55;;;25.00;70.60;;;;;;5036326;28;20032;-82
2022/07/05 03:35:57;;;;;;;4.80;1.92;;;25.00;70.60;;;;;;5036059;28;20482;-82
2022/07/05 03:38:23;;;;;;;3.67;1.30;;;25.00;70.50;;;;;;5017643;28;20034;-82
2022/07/05 03:40:49;;;;;;;3.03;1.30;;;25.00;70.70;;;;;;5016488;28;20040;-82
2022/07/05 03:43:15;;;;;;;3.05;1.23;;;25.20;70.20;;;;;;5025798;28;20109;-82
2022/07/05 03:45:41;;;;;;;4.20;1.38;;;25.20;69.80;;;;;;5036167;28;20049;-82
2022/07/05 03:48:07;;;;;;;6.07;2.47;;;25.30;69.60;;;;;;5035908;28;20071;-82
2022/07/05 03:50:32;;;;;;;4.43;2.28;;;25.30;69.80;;;;;;5035909;28;20351;-81
2022/07/05 03:52:58;;;;;;;4.32;1.30;;;25.10;69.90;;;;;;5018107;28;20079;-81
2022/07/05 03:55:24;;;;;;;4.28;1.50;;;25.10;69.90;;;;;;5035691;28;20033;-83
2022/07/05 03:57:50;;;;;;;3.20;1.50;;;25.30;69.70;;;;;;5017605;28;20029;-84
2022/07/05 04:00:16;;;;;;;7.05;2.13;;;25.30;69.10;;;;;;5035749;28;20458;-84
2022/07/05 04:02:41;;;;;;;2.97;1.48;;;25.30;69.00;;;;;;5035729;28;20026;-84
2022/07/05 04:05:07;;;;;;;2.13;0.95;;;25.40;69.20;;;;;;5035666;28;20032;-84
2022/07/05 04:07:33;;;;;;;8.68;2.55;;;25.30;69.10;;;;;;5024119;28;20034;-85
2022/07/05 04:10:00;;;;;;;8.30;2.17;;;25.20;69.50;;;;;;5015884;28;20030;-85
2022/07/05 04:12:26;;;;;;;4.60;2.13;;;25.20;69.70;;;;;;5016779;28;20101;-83
2022/07/05 04:14:51;;;;;;;5.25;1.77;;;25.10;69.60;;;;;;5035504;28;20031;-82
2022/07/05 04:17:17;;;;;;;3.15;1.35;;;25.20;69.50;;;;;;5035556;28;20104;-82
2022/07/05 04:19:43;;;;;;;6.22;2.97;;;25.30;69.50;;;;;;5035171;28;20030;-82
2022/07/05 04:22:09;;;;;;;5.00;2.30;;;25.20;69.70;;;;;;5035425;28;20029;-82
2022/07/05 04:25:16;;;;;;;3.55;1.25;;;25.20;69.80;;;;;;5035691;28;20525;-82
2022/07/05 04:27:21;;;;;;;6.50;1.98;;;25.30;69.20;;;;;;5035483;28;20587;-82
2022/07/05 04:29:47;;;;;;;3.47;1.25;;;25.60;69.10;;;;;;5035117;28;20108;-81
2022/07/05 04:32:13;;;;;;;4.47;1.90;;;25.60;68.80;;;;;;5034545;28;20036;-82
2022/07/05 04:34:38;;;;;;;3.55;2.10;;;25.70;68.80;;;;;;5016620;28;20133;-83
2022/07/05 04:37:04;;;;;;;4.10;2.50;;;25.50;68.90;;;;;;5032878;28;20037;-82
2022/07/05 04:39:30;;;;;;;6.57;2.13;;;25.30;69.50;;;;;;5035183;28;20036;-82
2022/07/05 04:41:55;;;;;;;6.80;2.40;;;25.30;70.20;;;;;;5034844;28;20025;-82
2022/07/05 04:44:21;;;;;;;5.72;2.30;;;25.30;70.30;;;;;;5034660;28;20072;-82
2022/07/05 04:46:47;;;;;;;4.72;2.63;;;25.10;70.70;;;;;;5035093;28;20036;-83
2022/07/05 04:49:12;;;;;;;5.75;2.55;;;25.00;70.80;;;;;;5035185;28;20036;-82
2022/07/05 04:51:38;;;;;;;4.30;2.05;;;25.10;70.80;;;;;;5035052;28;20041;-83
2022/07/05 04:54:04;;;;;;;5.15;2.35;;;25.00;70.80;;;;;;5034209;28;20067;-82
2022/07/05 04:56:29;;;;;;;6.95;2.22;;;24.90;71.40;;;;;;5034412;28;20104;-82
2022/07/05 04:58:55;;;;;;;6.72;1.92;;;24.90;71.40;;;;;;5034822;28;20034;-82
2022/07/05 05:01:21;;;;;;;4.03;1.58;;;24.90;71.70;;;;;;5034106;28;20029;-81
2022/07/05 05:03:47;;;;;;;4.85;1.48;;;25.10;71.10;;;;;;5016375;28;20037;-82
2022/07/05 05:06:14;;;;;;;9.95;2.60;;;25.30;71.20;;;;;;5031846;28;20020;-82
2022/07/05 05:08:41;;;;;;;2.30;1.38;;;25.20;71.50;;;;;;5015572;28;20026;-81
2022/07/05 05:11:07;;;;;;;3.10;1.52;;;25.20;71.80;;;;;;5034126;28;20033;-81
2022/07/05 05:13:49;;;;;;;;;;;;;;;;;;;;;
2022/07/05 05:16:15;;;;;;;6.00;2.25;;;25.40;71.20;;;;;;5054431;28;20493;-81
2022/07/05 05:18:40;;;;;;;3.10;1.40;;;25.50;71.20;;;;;;5040931;28;20112;-81
2022/07/05 05:21:06;;;;;;;5.38;1.90;;;25.60;70.70;;;;;;5033807;28;20033;-81
2022/07/05 05:23:32;;;;;;;9.40;2.42;;;25.50;71.00;;;;;;5034042;28;20034;-81
2022/07/05 05:25:57;;;;;;;7.32;2.17;;;25.60;70.80;;;;;;5034453;28;20331;-81
2022/07/05 05:28:23;;;;;;;5.72;1.85;;;25.60;70.80;;;;;;5026194;28;20438;-79
2022/07/05 05:30:49;;;;;;;3.53;1.70;;;25.40;71.00;;;;;;5037018;28;20025;-79
2022/07/05 05:33:14;;;;;;;3.20;1.73;;;25.50;71.20;;;;;;5052541;28;20053;-78
2022/07/05 05:35:40;;;;;;;6.65;2.47;;;25.70;71.10;;;;;;5045053;28;20084;-78
2022/07/05 05:38:07;;;;;;;4.10;1.60;;;25.50;71.10;;;;;;5031036;28;20037;-78
2022/07/05 05:40:33;;;;;;;4.50;1.98;;;25.70;71.00;;;;;;5036594;28;20533;-78
2022/07/05 05:42:58;;;;;;;3.83;1.65;;;25.80;71.00;;;;;;5045350;28;20107;-78
2022/07/05 05:45:25;;;;;;;2.13;1.25;;;25.80;70.50;;;;;;5047981;28;20026;-78
2022/07/05 05:47:52;;;;;;;7.38;1.40;;;26.00;70.10;;;;;;5036236;28;20407;-78
2022/07/05 05:50:20;;;;;;;2.72;1.52;;;26.10;70.00;;;;;;5039894;28;20487;-79
2022/07/05 05:52:46;;;;;;;6.30;1.92;;;26.20;69.70;;;;;;5033721;28;20037;-78
2022/07/05 05:55:11;;;;;;;4.03;1.42;;;26.20;69.20;;;;;;5033846;28;20029;-78
2022/07/05 05:57:37;;;;;;;1.55;0.90;;;26.30;68.90;;;;;;5033549;28;20088;-79
2022/07/05 06:00:05;;;;;;;1.35;0.60;;;26.40;68.60;;;;;;5033882;28;20041;-78
2022/07/05 06:02:31;;;;;;;3.78;1.63;;;26.60;68.60;;;;;;5033203;28;20091;-79
2022/07/05 06:04:56;;;;;;;3.67;1.60;;;26.40;67.00;;;;;;5033471;28;20061;-78
2022/07/05 06:07:22;;;;;;;1.98;1.20;;;26.30;67.40;;;;;;5031238;28;20029;-78
2022/07/05 06:09:48;;;;;;;3.65;1.00;;;26.40;67.40;;;;;;5033457;28;20424;-78
2022/07/05 06:12:14;;;;;;;4.03;1.15;;;26.60;67.30;;;;;;5033633;28;20046;-78
2022/07/05 06:14:40;;;;;;;2.45;1.00;;;26.80;67.10;;;;;;5015898;28;20117;-79
2022/07/05 06:17:05;;;;;;;1.50;1.00;;;26.90;66.80;;;;;;5033516;28;20108;-78
2022/07/05 06:19:31;;;;;;;2.95;1.00;;;27.10;66.20;;;;;;5033568;28;20041;-79
2022/07/05 06:21:57;;;;;;;1.98;0.98;;;27.20;66.00;;;;;;5033221;28;20079;-79
2022/07/05 06:24:23;;;;;;;1.65;1.00;;;27.30;65.80;;;;;;5015985;28;20094;-79
2022/07/05 06:26:49;;;;;;;3.83;1.73;;;27.40;65.70;;;;;;5033376;28;20097;-79
2022/07/05 06:29:14;;;;;;;2.20;1.20;;;27.50;65.10;;;;;;5032105;28;20112;-78
2022/07/05 06:31:40;;;;;;;2.33;1.40;;;27.60;64.70;;;;;;5032764;28;20030;-78
2022/07/05 06:34:06;;;;;;;3.53;1.20;;;27.60;64.70;;;;;;5027990;28;20029;-79
2022/07/05 06:36:33;;;;;;;4.55;1.42;;;27.70;64.20;;;;;;5035203;28;20032;-79
2022/07/05 06:38:59;;;;;;;1.77;0.98;;;27.70;64.00;;;;;;5040225;28;20025;-79
2022/07/05 06:41:25;;;;;;;1.27;0.90;;;27.80;63.80;;;;;;5035808;28;20025;-79
2022/07/05 06:43:51;;;;;;;3.55;1.15;;;27.80;63.90;;;;;;5032619;28;20442;-79
2022/07/05 06:46:17;;;;;;;1.20;0.70;;;27.80;63.90;;;;;;5014886;28;20121;-78
2022/07/05 06:48:42;;;;;;;2.90;1.00;;;27.80;64.10;;;;;;5035343;28;20104;-79
2022/07/05 06:51:08;;;;;;;3.70;1.00;;;27.90;64.30;;;;;;5036629;28;20112;-79
2022/07/05 06:53:34;;;;;;;2.15;0.95;;;27.90;64.40;;;;;;5036982;28;20033;-79
2022/07/05 06:55:59;;;;;;;2.00;1.02;;;27.90;64.30;;;;;;5035456;28;20021;-80
2022/07/05 06:58:25;;;;;;;1.80;0.82;;;28.00;64.30;;;;;;5035082;28;20037;-79
2022/07/05 07:00:51;;;;;;;1.67;0.95;;;28.00;64.10;;;;;;5036187;28;20021;-80
2022/07/05 07:03:16;;;;;;;3.90;1.40;;;28.00;63.80;;;;;;5035311;28;20092;-77
2022/07/05 07:05:42;;;;;;;4.63;1.23;;;28.00;63.80;;;;;;5034520;28;20032;-77
2022/07/05 07:10:52;;;;;;;3.92;1.10;;;28.00;63.90;;;;;;5036777;28;20052;-78
2022/07/05 07:13:19;;;;;;;2.17;0.80;;;28.10;63.90;;;;;;5036642;28;20029;-78
2022/07/05 07:15:47;;;;;;;2.88;1.50;;;28.10;63.90;;;;;;5018573;28;20057;-79
2022/07/05 07:18:14;;;;;;;5.25;1.45;;;28.00;64.30;;;;;;5036712;28;20030;-79
2022/07/05 07:20:39;;;;;;;2.15;1.23;;;28.10;65.10;;;;;;5036517;28;20034;-79
2022/07/05 07:23:05;;;;;;;3.88;1.73;;;28.10;64.60;;;;;;5036266;28;20087;-79
2022/07/05 07:25:31;;;;;;;4.93;1.50;;;28.20;64.80;;;;;;5036560;28;20033;-79
2022/07/05 07:27:57;;;;;;;4.32;1.38;;;28.20;64.40;;;;;;5018504;28;20028;-78
2022/07/05 07:30:26;;;;;;;3.25;1.50;;;28.30;64.40;;;;;;5036118;28;20112;-79
2022/07/05 07:32:52;;;;;;;1.70;1.05;;;28.30;64.50;;;;;;5035839;28;20029;-80
2022/07/05 07:35:18;;;;;;;2.47;1.15;;;28.40;64.20;;;;;;5035756;28;20094;-80
2022/07/05 07:37:45;;;;;;;7.68;2.50;;;28.40;64.30;;;;;;5017226;28;20045;-80
2022/07/05 07:40:11;;;;;;;4.25;1.63;;;28.40;65.20;;;;;;5016490;28;20026;-78
2022/07/05 07:42:37;;;;;;;2.90;1.33;;;28.40;64.70;;;;;;5016206;28;20473;-78
2022/07/05 07:45:03;;;;;;;4.32;1.23;;;28.50;65.30;;;;;;5016046;28;20030;-77
2022/07/05 07:47:33;;;;;;;4.05;1.38;;;28.50;65.20;;;;;;5016374;28;20026;-77
2022/07/05 07:49:59;;;;;;;;;;;28.50;65.20;;;;;;5016816;28;20107;-80
2022/07/05 07:52:25;;;;;;;5.00;2.10;;;28.50;65.50;;;;;;5016246;28;19941;-80
2022/07/05 07:54:51;;;;;;;2.97;1.55;;;28.50;65.00;;;;;;5016073;28;20433;-80
2022/07/05 07:57:18;;;;;;;2.05;1.17;;;28.40;64.80;;;;;;5015895;28;20117;-80
2022/07/05 07:59:44;;;;;;;4.82;1.58;;;28.40;64.80;;;;;;5015556;28;20136;-80
2022/07/05 08:02:10;;;;;;;7.00;1.50;;;28.40;64.80;;;;;;5015998;28;20041;-80
2022/07/05 08:04:36;;;;;;;4.05;1.40;;;28.50;64.80;;;;;;5015756;28;20033;-80
2022/07/05 08:07:03;;;;;;;3.53;1.73;;;28.60;64.90;;;;;;5015962;28;20026;-82
2022/07/05 08:09:29;;;;;;;3.65;1.30;;;28.70;65.00;;;;;;5015956;28;20105;-79
2022/07/05 08:11:55;;;;;;;1.75;1.40;;;28.80;64.90;;;;;;5021805;28;20029;-79
2022/07/05 08:14:21;;;;;;;3.45;1.88;;;28.80;64.70;;;;;;5027521;28;20060;-80
2022/07/05 08:16:48;;;;;;;2.45;1.40;;;28.90;64.60;;;;;;5051109;28;20472;-80
2022/07/05 08:21:58;;;;;;;14.32;6.82;;;29.00;64.10;;;;;;5029794;28;20096;-80
2022/07/05 08:24:24;;;;;;;25.45;22.65;;;28.80;63.50;;;;;;5034421;28;20033;-81
2022/07/05 08:26:49;;;;;;;9.13;4.90;;;28.80;64.00;;;;;;5034625;28;20136;-79
2022/07/05 08:29:15;;;;;;;6.72;2.30;;;28.60;63.80;;;;;;5035149;28;20476;-77
2022/07/05 08:31:41;;;;;;;8.65;3.00;;;28.70;64.30;;;;;;5034294;28;20096;-76
2022/07/05 08:34:07;;;;;;;8.05;1.90;;;28.60;64.70;;;;;;5034054;28;20029;-78
2022/07/05 08:36:33;;;;;;;3.63;1.88;;;28.60;65.30;;;;;;5024439;28;20375;-79
2022/07/05 08:38:58;;;;;;;4.20;1.92;;;28.70;65.00;;;;;;5015116;28;20044;-79
2022/07/05 08:41:25;;;;;;;2.35;1.55;;;28.80;64.60;;;;;;4997187;28;20030;-78
2022/07/05 08:43:51;;;;;;;7.20;2.50;;;28.80;64.90;;;;;;5014917;28;20026;-78
2022/07/05 08:46:19;;;;;;;2.80;1.60;;;29.00;64.80;;;;;;5026166;28;20052;-79
2022/07/05 08:48:51;;;;;;;4.50;2.13;;;29.00;64.50;;;;;;5048964;28;20025;-79
2022/07/05 08:51:21;;;;;;;2.83;1.88;;;29.10;64.20;;;;;;5053969;28;20013;-79
2022/07/05 08:53:47;;;;;;;3.05;1.83;;;29.10;64.50;;;;;;5054801;28;20074;-79
2022/07/05 08:56:14;;;;;;;8.75;2.83;;;29.10;63.80;;;;;;5042666;28;20074;-79
2022/07/05 08:58:40;;;;;;;4.53;2.05;;;29.20;63.80;;;;;;5053996;28;20032;-79
2022/07/05 09:01:07;;;;;;;7.93;1.92;;;29.10;63.80;;;;;;5052647;28;20024;-79
2022/07/05 09:03:44;;;;;;;3.05;1.67;;;29.20;63.70;;;;;;5054235;28;20040;-79
2022/07/05 09:06:12;;;;;;;3.30;1.63;;;29.10;62.50;;;;;;5033342;28;20030;-79
2022/07/05 09:08:39;;;;;;;4.22;1.70;;;29.30;63.00;;;;;;5013971;28;20025;-79
2022/07/05 09:11:11;;;;;;;5.55;1.70;;;29.40;61.90;;;;;;5012806;28;20502;-79
2022/07/05 09:13:40;;;;;;;2.75;2.03;;;29.50;61.20;;;;;;5014436;28;20034;-79
2022/07/05 09:16:06;;;;;;;2.88;1.90;;;29.50;61.40;;;;;;5021327;28;20370;-80
2022/07/05 09:18:49;;;;;;;4.47;1.63;;;29.60;61.70;;;;;;5033946;28;20115;-79
2022/07/05 09:21:23;;;;;;;3.17;1.60;;;29.70;62.00;;;;;;5015289;28;20029;-79
2022/07/05 09:24:00;;;;;;;3.88;1.50;;;29.90;62.10;;;;;;5032062;28;20057;-79
2022/07/05 09:26:40;;;;;;;3.80;1.40;;;30.10;61.60;;;;;;5033286;28;20032;-79
2022/07/05 09:29:08;;;;;;;5.05;1.63;;;30.20;61.00;;;;;;5033829;28;20097;-80
2022/07/05 09:31:36;;;;;;;4.65;1.98;;;30.40;60.50;;;;;;5033720;28;20087;-78
2022/07/05 09:34:11;;;;;;;5.50;1.80;;;30.40;59.80;;;;;;5033716;28;20378;-78
2022/07/05 09:37:03;;;;;;;5.05;2.05;;;30.40;59.00;;;;;;5027415;28;20068;-78
2022/07/05 09:39:37;;;;;;;3.63;1.30;;;30.50;57.60;;;;;;5013920;28;20095;-78
2022/07/05 09:42:12;;;;;;;3.53;1.75;;;30.60;59.00;;;;;;5013979;28;20064;-78
2022/07/05 09:44:38;;;;;;;1.98;1.45;;;30.70;59.40;;;;;;5013958;28;20084;-79
2022/07/05 09:47:10;;;;;;;2.47;1.45;;;30.80;58.60;;;;;;5018124;28;20045;-79
2022/07/05 09:49:43;;;;;;;2.50;1.17;;;30.90;58.50;;;;;;5041169;28;20028;-79
2022/07/05 09:52:10;;;;;;;8.35;2.25;;;31.00;58.70;;;;;;5023286;28;20041;-80
2022/07/05 09:54:35;;;;;;;4.35;2.58;;;31.00;57.00;;;;;;5037251;28;20099;-81
2022/07/05 09:57:01;;;;;;;5.05;2.35;;;31.00;57.30;;;;;;5035832;28;20037;-80
2022/07/05 09:59:27;;;;;;;3.70;2.20;;;31.10;57.10;;;;;;5044982;28;20025;-80
2022/07/05 10:01:53;;;;;;;4.38;1.65;;;31.00;56.20;;;;;;5041172;28;20061;-81
2022/07/05 10:04:19;;;;;;;2.45;1.63;;;31.20;57.10;;;;;;5035284;28;20087;-81
2022/07/05 10:06:45;;;;;;;10.80;2.42;;;31.30;57.30;;;;;;5024909;28;20113;-83
2022/07/05 10:09:15;;;;;;;1.27;1.00;;;31.20;53.90;;;;;;5022563;28;20083;-83
2022/07/05 10:11:44;;;;;;;5.82;1.88;;;31.30;54.90;;;;;;5006077;28;20071;-81
2022/07/05 10:14:16;;;;;;;2.20;1.13;;;31.40;54.40;;;;;;5036158;28;20032;-82
2022/07/05 10:16:46;;;;;;;2.30;1.00;;;31.50;55.20;;;;;;5044505;28;20025;-82
2022/07/05 10:19:18;;;;;;;4.30;1.67;;;31.60;54.20;;;;;;5026878;28;20033;-81
2022/07/05 10:21:45;;;;;;;2.03;1.20;;;31.70;53.70;;;;;;5035695;28;20025;-81
2022/07/05 10:24:13;;;;;;;1.95;1.40;;;31.90;54.40;;;;;;5025148;28;20095;-82
2022/07/05 10:26:39;;;;;;;3.20;1.35;;;32.10;54.60;;;;;;5013521;28;20026;-82
2022/07/05 10:29:06;;;;;;;3.35;1.40;;;32.30;54.90;;;;;;5022696;28;20053;-83
2022/07/05 10:31:32;;;;;;;8.15;2.40;;;32.50;55.00;;;;;;5012933;28;20041;-81
2022/07/05 10:34:07;;;;;;;3.25;1.63;;;32.50;54.30;;;;;;5013902;28;20025;-79
2022/07/05 10:36:34;;;;;;;2.38;1.20;;;32.50;53.40;;;;;;5013924;28;20069;-82
2022/07/05 10:39:00;;;;;;;9.20;2.05;;;32.60;54.30;;;;;;5032082;28;20500;-84
2022/07/05 10:41:29;;;;;;;5.13;1.65;;;32.70;54.80;;;;;;5032535;28;20466;-84
2022/07/05 10:43:55;;;;;;;2.45;1.38;;;32.90;54.70;;;;;;5032956;28;20018;-85
2022/07/05 10:46:38;;;;;;;19.15;3.05;;;33.20;54.60;;;;;;5032047;28;20029;-81
2022/07/05 10:49:13;;;;;;;8.98;1.75;;;33.00;51.80;;;;;;5032929;28;20033;-82
2022/07/05 10:51:39;;;;;;;3.65;1.60;;;33.20;53.30;;;;;;5033179;28;20041;-82
2022/07/05 10:54:05;;;;;;;4.25;1.40;;;33.30;53.20;;;;;;5033430;28;20026;-81
2022/07/05 10:56:30;;;;;;;4.40;1.83;;;33.40;52.50;;;;;;5032929;28;20144;-81
2022/07/05 10:59:09;;;;;;;3.95;1.65;;;33.50;52.90;;;;;;5033012;28;20104;-81
2022/07/05 11:01:37;;;;;;;3.80;1.23;;;33.70;52.80;;;;;;5015353;28;20401;-81
2022/07/05 11:04:02;;;;;;;1.60;1.27;;;33.90;52.80;;;;;;5032825;28;20598;-82
2022/07/05 11:06:29;;;;;;;2.65;1.25;;;34.10;52.00;;;;;;5019067;28;20033;-82
2022/07/05 11:08:58;;;;;;;5.13;1.60;;;34.30;52.30;;;;;;5013204;28;20022;-81
2022/07/05 11:11:29;;;;;;;2.35;1.40;;;34.40;50.80;;;;;;5019490;28;20404;-81
2022/07/05 11:13:58;;;;;;;2.58;1.60;;;34.50;51.80;;;;;;5032368;28;20031;-81
2022/07/05 11:16:33;;;;;;;3.10;1.53;;;34.60;51.70;;;;;;5032807;28;20428;-81
2022/07/05 11:19:10;;;;;;;2.10;1.50;;;34.80;52.30;;;;;;5014752;28;20347;-81
2022/07/05 11:21:58;;;;;;;3.38;2.00;;;35.00;51.90;;;;;;5031977;28;20108;-81
2022/07/05 11:24:27;;;;;;;3.13;1.38;;;35.00;49.20;;;;;;5032171;28;20033;-81
2022/07/05 11:26:57;;;;;;;2.35;1.65;;;34.90;50.30;;;;;;5032617;28;20025;-82
2022/07/05 11:29:48;;;;;;;1.58;1.10;;;35.10;50.80;;;;;;5032134;28;20129;-82
2022/07/05 11:32:17;;;;;;;5.47;1.65;;;35.40;50.60;;;;;;5014687;28;20401;-82
2022/07/05 11:34:48;;;;;;;1.90;1.38;;;35.80;50.70;;;;;;5032480;28;20119;-82
2022/07/05 11:37:14;;;;;;;5.80;2.47;;;36.20;50.50;;;;;;5017502;28;20112;-82
2022/07/05 11:39:40;;;;;;;4.25;1.67;;;36.60;49.70;;;;;;5036406;28;20083;-83
2022/07/05 11:42:08;;;;;;;5.15;1.50;;;37.10;49.40;;;;;;5017897;28;20104;-83
2022/07/05 11:44:40;;;;;;;4.72;1.65;;;37.50;48.70;;;;;;5045955;28;20440;-83
2022/07/05 11:47:06;;;;;;;4.25;1.77;;;37.90;47.80;;;;;;5032616;28;20017;-83
2022/07/05 11:49:32;;;;;;;4.00;1.90;;;38.10;47.50;;;;;;5047477;28;20041;-82
2022/07/05 11:52:02;;;;;;;2.63;1.75;;;38.40;46.60;;;;;;5040661;28;20033;-83
2022/07/05 11:54:30;;;;;;;2.50;1.48;;;38.70;45.80;;;;;;5033040;28;20040;-83
2022/07/05 11:56:57;;;;;;;2.35;1.80;;;38.90;45.60;;;;;;5032982;28;20026;-84
2022/07/05 11:59:24;;;;;;;3.53;1.80;;;39.00;45.40;;;;;;5033438;28;20033;-82
2022/07/05 12:01:51;;;;;;;6.38;1.55;;;38.90;44.50;;;;;;5032784;28;20087;-82
2022/07/05 12:04:28;;;;;;;5.82;1.65;;;39.20;45.20;;;;;;5033081;28;20387;-84
2022/07/05 12:06:55;;;;;;;2.90;1.50;;;39.40;44.00;;;;;;5015122;28;20037;-82
2022/07/05 12:09:26;;;;;;;5.15;1.88;;;39.60;44.60;;;;;;5031941;28;20076;-81
2022/07/05 12:14:50;;;;;;;4.40;2.50;;;39.90;44.30;;;;;;5034165;28;20527;-82
2022/07/05 12:17:18;;;;;;;3.80;1.70;;;40.00;42.80;;;;;;5050430;28;20116;-85
2022/07/05 12:19:47;;;;;;;6.45;2.10;;;40.10;43.60;;;;;;5033066;28;20038;-84
2022/07/05 12:22:14;;;;;;;6.47;2.50;;;40.20;43.80;;;;;;5034006;28;20128;-83
2022/07/05 12:24:41;;;;;;;4.65;2.17;;;39.80;43.40;;;;;;5034818;28;20049;-84
2022/07/05 12:27:09;;;;;;;4.03;2.58;;;40.00;43.70;;;;;;5034452;28;20040;-82
2022/07/05 12:29:35;;;;;;;5.22;2.20;;;40.10;42.70;;;;;;5036047;28;20108;-85
2022/07/05 12:32:04;;;;;;;5.65;2.35;;;40.00;43.00;;;;;;5036594;28;20120;-80
2022/07/05 12:34:32;;;;;;;4.20;2.30;;;40.20;42.40;;;;;;5052543;28;20049;-86
2022/07/05 12:36:58;;;;;;;10.40;2.53;;;40.20;41.80;;;;;;5034863;28;20978;-82
2022/07/05 12:39:24;;;;;;;4.22;2.45;;;40.20;42.30;;;;;;5017360;28;20038;-84
2022/07/05 12:41:50;;;;;;;4.60;2.25;;;40.20;41.90;;;;;;5035213;28;20123;-83
2022/07/05 12:44:19;;;;;;;10.05;2.72;;;40.10;42.00;;;;;;5034362;28;20069;-85
2022/07/05 12:46:46;;;;;;;7.18;1.83;;;39.80;41.10;;;;;;5040170;28;20021;-84
2022/07/05 12:49:12;;;;;;;6.10;1.92;;;40.00;42.10;;;;;;5054480;28;20449;-89
2022/07/05 12:51:45;;;;;;;6.40;2.42;;;40.20;41.50;;;;;;5020775;28;20025;-88
2022/07/05 13:00:04;;;;;;;4.13;2.17;;;40.60;40.80;;;;;;5055767;28;20130;-92
2022/07/05 13:02:40;;;;;;;3.35;1.77;;;40.80;40.90;;;;;;5054872;28;20025;-89
2022/07/05 13:05:08;;;;;;;3.65;2.17;;;40.80;40.10;;;;;;5040133;28;20032;-91
2022/07/05 13:07:41;;;;;;;11.43;2.42;;;40.90;40.40;;;;;;5032376;28;20033;-96
2022/07/05 13:10:18;;;;;;;10.00;2.95;;;40.70;39.40;;;;;;5032330;28;20030;-93
2022/07/05 13:12:44;;;;;;;9.27;2.10;;;40.40;37.90;;;;;;5038014;28;20029;-87
2022/07/05 13:15:10;;;;;;;4.65;2.08;;;39.20;38.40;;;;;;5052079;28;20048;-88
2022/07/05 13:17:36;;;;;;;4.03;1.38;;;39.30;39.80;;;;;;5053825;28;20048;-92
2022/07/05 13:20:03;;;;;;;2.60;1.20;;;39.70;40.00;;;;;;5054226;28;20465;-90
2022/07/05 13:22:29;;;;;;;5.32;1.95;;;39.90;39.90;;;;;;5054809;28;20725;-89
2022/07/05 13:24:55;;;;;;;3.13;2.03;;;40.00;39.90;;;;;;5046224;28;20036;-86